createdAt,value
2022-08-26T00:01:54.377Z,21.89
2022-08-26T00:04:23.654Z,21.90
2022-08-26T00:06:50.940Z,21.80
2022-08-26T00:09:17.762Z,21.73
2022-08-26T00:11:45.563Z,21.71
2022-08-26T00:14:13.641Z,21.72
2022-08-26T00:16:47.782Z,21.81
2022-08-26T00:19:20.671Z,21.84
2022-08-26T00:21:49.684Z,21.95
2022-08-26T00:24:17.559Z,21.98
2022-08-26T00:26:44.171Z,21.85
2022-08-26T00:29:12.244Z,21.70
2022-08-26T00:31:39.085Z,21.66
2022-08-26T00:34:07.102Z,21.70
2022-08-26T00:36:36.108Z,21.69
2022-08-26T00:39:04.559Z,21.55
2022-08-26T00:41:31.099Z,21.40
2022-08-26T00:43:57.663Z,21.36
2022-08-26T00:46:28.836Z,21.49
2022-08-26T00:49:05.473Z,21.47
2022-08-26T00:51:45.430Z,21.42
2022-08-26T00:54:12.883Z,21.31
2022-08-26T00:57:04.810Z,21.27
2022-08-26T00:59:35.750Z,21.07
2022-08-26T01:02:05.979Z,21.11
2022-08-26T01:04:36.347Z,21.19
2022-08-26T01:07:04.643Z,21.29
2022-08-26T01:09:32.233Z,21.31
2022-08-26T01:12:01.609Z,21.34
2022-08-26T01:14:33.861Z,21.30
2022-08-26T01:17:05.823Z,21.11
2022-08-26T01:19:40.830Z,21.19
2022-08-26T01:22:19.345Z,21.02
2022-08-26T01:24:48.241Z,20.72
2022-08-26T01:27:18.806Z,20.86
2022-08-26T01:29:48.754Z,21.05
2022-08-26T01:32:22.057Z,21.04
2022-08-26T01:34:50.256Z,21.00
2022-08-26T01:37:23.592Z,21.05
2022-08-26T01:39:53.811Z,21.01
2022-08-26T01:42:23.769Z,20.97
2022-08-26T01:44:54.089Z,20.92
2022-08-26T01:47:24.261Z,20.96
2022-08-26T01:49:54.506Z,20.98
2022-08-26T01:52:28.058Z,20.93
2022-08-26T01:54:57.410Z,20.88
2022-08-26T01:57:25.189Z,20.81
2022-08-26T01:59:54.590Z,20.84
2022-08-26T02:02:21.814Z,20.74
2022-08-26T02:04:54.404Z,20.63
2022-08-26T02:07:21.791Z,20.66
2022-08-26T02:09:49.158Z,20.61
2022-08-26T02:12:17.933Z,20.52
2022-08-26T02:14:53.590Z,20.58
2022-08-26T02:17:23.614Z,20.62
2022-08-26T02:19:50.640Z,20.64
2022-08-26T02:22:24.498Z,20.43
2022-08-26T02:24:54.778Z,20.46
2022-08-26T02:27:33.193Z,20.50
2022-08-26T02:30:06.641Z,20.63
2022-08-26T02:32:33.245Z,20.65
2022-08-26T02:35:01.532Z,20.56
2022-08-26T02:37:30.484Z,20.66
2022-08-26T02:39:57.188Z,20.71
2022-08-26T02:42:23.922Z,20.79
2022-08-26T02:44:51.845Z,20.87
2022-08-26T02:47:18.484Z,20.91
2022-08-26T02:49:47.328Z,20.91
2022-08-26T02:52:14.531Z,20.92
2022-08-26T02:54:41.075Z,20.93
2022-08-26T02:57:08.519Z,20.72
2022-08-26T02:59:35.994Z,20.85
2022-08-26T03:02:03.209Z,20.95
2022-08-26T03:04:30.405Z,20.99
2022-08-26T03:07:00.184Z,21.11
2022-08-26T03:09:27.052Z,21.05
2022-08-26T03:11:55.284Z,20.99
2022-08-26T03:14:23.903Z,21.01
2022-08-26T03:16:53.875Z,21.04
2022-08-26T03:19:23.145Z,21.04
2022-08-26T03:21:50.125Z,21.04
2022-08-26T03:24:19.781Z,21.04
2022-08-26T03:26:52.975Z,21.09
2022-08-26T03:29:39.281Z,21.00
2022-08-26T03:32:06.223Z,20.95
2022-08-26T03:34:33.186Z,21.14
2022-08-26T03:36:59.888Z,21.08
2022-08-26T03:39:28.729Z,21.03
2022-08-26T03:41:58.814Z,21.05
2022-08-26T03:44:26.625Z,21.02
2022-08-26T03:46:54.463Z,20.98
2022-08-26T03:49:21.697Z,20.97
2022-08-26T03:51:48.308Z,20.96
2022-08-26T03:54:15.296Z,20.85
2022-08-26T03:56:41.799Z,20.85
2022-08-26T03:59:08.545Z,20.89
2022-08-26T04:01:35.489Z,20.92
2022-08-26T04:04:02.385Z,20.87
2022-08-26T04:06:33.009Z,20.70
2022-08-26T04:09:02.302Z,20.85
2022-08-26T04:11:34.318Z,20.94
2022-08-26T04:14:09.842Z,20.93
2022-08-26T04:16:37.097Z,21.03
2022-08-26T04:19:04.052Z,20.91
2022-08-26T04:21:30.732Z,20.99
2022-08-26T04:23:58.272Z,21.08
2022-08-26T04:26:26.041Z,21.13
2022-08-26T04:28:54.426Z,20.95
2022-08-26T04:31:22.125Z,20.81
2022-08-26T04:33:50.037Z,20.82
2022-08-26T04:36:17.446Z,20.88
2022-08-26T04:38:46.488Z,20.88
2022-08-26T04:41:14.832Z,21.14
2022-08-26T04:43:42.676Z,21.24
2022-08-26T04:46:11.406Z,21.40
2022-08-26T04:48:40.938Z,21.42
2022-08-26T04:51:09.069Z,21.25
2022-08-26T04:53:36.978Z,21.39
2022-08-26T04:56:04.751Z,21.33
2022-08-26T04:58:32.335Z,21.34
2022-08-26T05:00:59.501Z,21.26
2022-08-26T05:03:27.295Z,21.20
2022-08-26T05:05:58.241Z,21.16
2022-08-26T05:08:24.955Z,21.12
2022-08-26T05:10:56.410Z,21.07
2022-08-26T05:13:28.926Z,21.09
2022-08-26T05:15:55.723Z,21.01
2022-08-26T05:18:29.925Z,21.13
2022-08-26T05:20:57.359Z,21.18
2022-08-26T05:23:25.025Z,21.23
2022-08-26T05:25:58.889Z,21.36
2022-08-26T05:28:28.510Z,21.51
2022-08-26T05:30:56.094Z,21.67
2022-08-26T05:33:23.083Z,21.69
2022-08-26T05:35:49.644Z,21.66
2022-08-26T05:38:18.437Z,21.69
2022-08-26T05:40:49.129Z,21.73
2022-08-26T05:43:20.470Z,21.66
2022-08-26T05:45:49.139Z,21.30
2022-08-26T05:48:19.099Z,21.38
2022-08-26T05:50:52.844Z,21.76
2022-08-26T05:53:21.209Z,21.82
2022-08-26T05:55:50.847Z,22.00
2022-08-26T05:58:22.378Z,22.04
2022-08-26T06:01:05.674Z,22.11
2022-08-26T06:03:35.651Z,22.42
2022-08-26T06:06:11.075Z,22.50
2022-08-26T06:08:37.880Z,22.25
2022-08-26T06:11:07.245Z,22.11
2022-08-26T06:13:35.044Z,22.13
2022-08-26T06:16:04.844Z,22.45
2022-08-26T06:18:34.857Z,22.55
2022-08-26T06:21:32.593Z,22.84
2022-08-26T06:24:27.176Z,22.68
2022-08-26T06:27:01.075Z,22.44
2022-08-26T06:29:29.962Z,22.38
2022-08-26T06:31:57.939Z,22.82
2022-08-26T06:34:26.591Z,23.02
2022-08-26T06:36:58.495Z,23.15
2022-08-26T06:39:25.497Z,22.99
2022-08-26T06:41:52.108Z,23.21
2022-08-26T06:44:19.136Z,23.41
2022-08-26T06:46:46.297Z,23.65
2022-08-26T06:49:17.609Z,23.69
2022-08-26T06:51:44.398Z,23.98
2022-08-26T06:54:11.378Z,24.05
2022-08-26T06:56:42.605Z,24.19
2022-08-26T06:59:11.185Z,24.81
2022-08-26T07:01:44.203Z,25.28
2022-08-26T07:04:12.357Z,25.27
2022-08-26T07:06:41.056Z,25.39
2022-08-26T07:09:10.458Z,25.99
2022-08-26T07:11:39.007Z,26.79
2022-08-26T07:14:06.698Z,27.94
2022-08-26T07:16:33.827Z,29.18
2022-08-26T07:19:03.339Z,29.46
2022-08-26T07:21:30.327Z,30.62
2022-08-26T07:24:01.514Z,30.83
2022-08-26T07:26:30.227Z,31.11
2022-08-26T07:28:58.281Z,32.72
2022-08-26T07:31:28.187Z,33.56
2022-08-26T07:33:57.131Z,31.92
2022-08-26T07:36:24.700Z,31.13
2022-08-26T07:38:52.663Z,32.02
2022-08-26T07:41:22.669Z,32.53
2022-08-26T07:43:51.504Z,32.74
2022-08-26T07:46:26.950Z,30.79
2022-08-26T07:48:54.714Z,30.42
2022-08-26T07:51:22.710Z,30.77
2022-08-26T07:53:52.827Z,32.08
2022-08-26T07:56:21.218Z,34.55
2022-08-26T07:58:51.600Z,33.68
2022-08-26T08:01:23.711Z,33.39
2022-08-26T08:03:53.709Z,33.82
2022-08-26T08:06:27.195Z,33.53
2022-08-26T08:08:54.629Z,32.14
2022-08-26T08:11:22.111Z,31.30
2022-08-26T08:13:56.124Z,30.66
2022-08-26T08:16:28.483Z,30.38
2022-08-26T08:18:59.285Z,32.16
2022-08-26T08:21:27.867Z,31.84
2022-08-26T08:23:57.227Z,31.20
2022-08-26T08:26:26.068Z,30.94
2022-08-26T08:28:57.367Z,32.55
2022-08-26T08:31:55.911Z,31.94
2022-08-26T08:34:15.047Z,32.52
2022-08-26T08:36:41.848Z,31.81
2022-08-26T08:39:09.316Z,32.35
2022-08-26T08:41:48.456Z,32.53
2022-08-26T08:44:21.225Z,33.67
2022-08-26T08:46:57.718Z,33.11
2022-08-26T08:49:25.833Z,32.77
2022-08-26T08:52:00.847Z,31.61
2022-08-26T08:54:29.055Z,31.16
2022-08-26T08:57:08.331Z,30.50
2022-08-26T08:59:38.893Z,29.26
2022-08-26T09:02:28.791Z,30.94
2022-08-26T09:05:22.957Z,32.32
2022-08-26T09:07:55.679Z,34.07
2022-08-26T09:11:00.350Z,33.86
2022-08-26T09:13:27.939Z,33.42
2022-08-26T09:16:10.103Z,36.64
2022-08-26T09:18:49.017Z,40.12
2022-08-26T09:21:23.275Z,37.18
2022-08-26T09:23:51.449Z,36.15
2022-08-26T09:26:30.652Z,33.79
2022-08-26T09:29:01.082Z,33.72
2022-08-26T09:31:34.030Z,33.88
2022-08-26T09:34:20.942Z,32.74
2022-08-26T09:36:48.702Z,32.44
2022-08-26T09:39:29.060Z,34.70
2022-08-26T09:42:20.550Z,34.26
2022-08-26T09:45:00.411Z,35.75
2022-08-26T09:47:41.354Z,35.42
2022-08-26T09:50:23.382Z,34.50
2022-08-26T09:53:17.316Z,34.45
2022-08-26T09:55:50.505Z,36.35
2022-08-26T09:58:33.536Z,38.88
2022-08-26T10:01:02.185Z,41.12
2022-08-26T10:03:32.996Z,41.65
2022-08-26T10:06:02.181Z,43.91
2022-08-26T10:08:33.170Z,41.71
2022-08-26T10:11:07.330Z,43.76
2022-08-26T10:13:37.894Z,41.88
2022-08-26T10:16:16.234Z,44.48
2022-08-26T10:18:59.477Z,39.35
2022-08-26T10:21:32.827Z,37.93
2022-08-26T10:24:02.490Z,36.12
2022-08-26T10:26:38.293Z,35.33
2022-08-26T10:29:22.905Z,34.47
2022-08-26T10:32:03.617Z,37.87
2022-08-26T10:34:32.286Z,37.82
2022-08-26T10:37:14.865Z,36.26
2022-08-26T10:40:01.856Z,35.77
2022-08-26T10:42:37.420Z,37.28
2022-08-26T10:45:16.755Z,38.48
2022-08-26T10:47:50.174Z,38.77
2022-08-26T10:50:19.005Z,40.54
2022-08-26T10:53:19.687Z,41.16
2022-08-26T10:56:15.907Z,41.38
2022-08-26T10:59:24.192Z,41.32
2022-08-26T11:01:59.225Z,39.41
2022-08-26T11:04:46.958Z,38.49
2022-08-26T11:07:37.201Z,38.10
2022-08-26T11:10:08.794Z,39.20
2022-08-26T11:12:38.597Z,42.14
2022-08-26T11:15:20.077Z,40.60
2022-08-26T11:17:51.354Z,38.86
2022-08-26T11:20:30.999Z,40.74
2022-08-26T11:23:20.369Z,39.88
2022-08-26T11:25:57.062Z,41.55
2022-08-26T11:28:48.519Z,40.76
2022-08-26T11:31:24.408Z,39.11
2022-08-26T11:33:56.873Z,39.28
2022-08-26T11:36:51.559Z,36.14
2022-08-26T11:39:24.300Z,35.39
2022-08-26T11:41:53.902Z,33.96
2022-08-26T11:44:26.279Z,33.87
2022-08-26T11:47:00.821Z,33.00
2022-08-26T11:49:29.442Z,32.42
2022-08-26T11:52:16.826Z,32.97
2022-08-26T11:55:14.266Z,32.33
2022-08-26T11:57:49.310Z,31.96
2022-08-26T12:00:23.942Z,31.76
2022-08-26T12:02:52.563Z,31.47
2022-08-26T12:05:30.966Z,30.90
2022-08-26T12:08:06.286Z,31.12
2022-08-26T12:10:34.390Z,31.08
2022-08-26T12:13:02.416Z,30.90
2022-08-26T12:15:32.021Z,31.23
2022-08-26T12:18:16.837Z,31.54
2022-08-26T12:20:48.162Z,31.88
2022-08-26T12:23:26.886Z,32.09
2022-08-26T12:26:04.306Z,32.36
2022-08-26T12:28:31.266Z,32.60
2022-08-26T12:31:03.513Z,32.25
2022-08-26T12:33:34.561Z,32.37
2022-08-26T12:36:01.991Z,32.50
2022-08-26T12:38:29.798Z,32.42
2022-08-26T12:40:56.992Z,32.46
2022-08-26T12:43:41.605Z,32.83
2022-08-26T12:46:16.129Z,33.23
2022-08-26T12:48:47.443Z,33.37
2022-08-26T12:51:26.537Z,33.79
2022-08-26T12:53:53.957Z,33.68
2022-08-26T12:56:33.715Z,33.94
2022-08-26T12:59:25.017Z,34.09
2022-08-26T13:01:52.672Z,34.17
2022-08-26T13:04:35.844Z,34.54
2022-08-26T13:07:15.681Z,33.88
2022-08-26T13:09:42.292Z,33.98
2022-08-26T13:12:11.564Z,34.14
2022-08-26T13:14:38.382Z,33.55
2022-08-26T13:17:05.012Z,34.79
2022-08-26T13:19:31.576Z,34.28
2022-08-26T13:22:01.292Z,34.17
2022-08-26T13:24:33.916Z,35.36
2022-08-26T13:27:01.637Z,35.89
2022-08-26T13:29:28.673Z,36.12
2022-08-26T13:31:55.940Z,35.53
2022-08-26T13:34:24.497Z,35.76
2022-08-26T13:36:53.319Z,35.88
2022-08-26T13:39:21.233Z,36.54
2022-08-26T13:41:47.896Z,37.02
2022-08-26T13:44:14.689Z,36.44
2022-08-26T13:46:41.721Z,36.53
2022-08-26T13:49:09.227Z,37.59
2022-08-26T13:51:35.911Z,37.17
2022-08-26T13:54:02.437Z,38.17
2022-08-26T13:56:29.812Z,37.70
2022-08-26T13:58:57.966Z,35.47
2022-08-26T14:01:25.523Z,34.53
2022-08-26T14:03:52.349Z,34.22
2022-08-26T14:06:19.430Z,33.62
2022-08-26T14:08:46.158Z,32.77
2022-08-26T14:11:13.035Z,31.98
2022-08-26T14:13:39.671Z,31.40
2022-08-26T14:16:13.664Z,31.50
2022-08-26T14:18:44.402Z,31.52
2022-08-26T14:21:14.426Z,31.22
2022-08-26T14:23:41.381Z,31.16
2022-08-26T14:26:10.749Z,31.13
2022-08-26T14:28:41.713Z,31.09
2022-08-26T14:31:08.711Z,31.11
2022-08-26T14:33:38.097Z,30.92
2022-08-26T14:36:26.868Z,30.80
2022-08-26T14:38:54.458Z,30.56
2022-08-26T14:41:22.107Z,30.52
2022-08-26T14:43:57.821Z,30.41
2022-08-26T14:46:28.730Z,30.49
2022-08-26T14:49:01.833Z,30.54
2022-08-26T14:51:29.145Z,30.51
2022-08-26T14:54:14.534Z,30.53
2022-08-26T14:56:51.153Z,30.45
2022-08-26T14:59:21.714Z,30.26
2022-08-26T15:01:48.320Z,30.06
2022-08-26T15:04:15.721Z,29.93
2022-08-26T15:06:42.437Z,29.76
2022-08-26T15:09:09.295Z,29.66
2022-08-26T15:11:36.267Z,29.69
2022-08-26T15:14:03.059Z,29.70
2022-08-26T15:16:30.350Z,29.67
2022-08-26T15:18:57.045Z,29.47
2022-08-26T15:21:24.550Z,29.37
2022-08-26T15:23:52.591Z,29.54
2022-08-26T15:26:20.648Z,29.25
2022-08-26T15:28:47.464Z,29.22
2022-08-26T15:31:14.219Z,29.23
2022-08-26T15:33:40.882Z,29.08
2022-08-26T15:36:08.541Z,29.33
2022-08-26T15:38:40.232Z,29.26
2022-08-26T15:41:08.546Z,29.30
2022-08-26T15:43:37.090Z,29.43
2022-08-26T15:46:04.745Z,29.25
2022-08-26T15:48:31.404Z,29.41
2022-08-26T15:51:01.376Z,29.31
2022-08-26T15:53:31.217Z,29.29
2022-08-26T15:55:59.338Z,29.40
2022-08-26T15:58:27.412Z,29.57
2022-08-26T16:00:55.588Z,29.68
2022-08-26T16:03:22.571Z,29.57
2022-08-26T16:05:49.224Z,30.00
2022-08-26T16:08:15.962Z,30.32
2022-08-26T16:10:49.393Z,30.48
2022-08-26T16:13:19.960Z,30.57
2022-08-26T16:15:47.831Z,30.71
2022-08-26T16:18:15.733Z,30.52
2022-08-26T16:21:12.822Z,30.45
2022-08-26T16:23:38.785Z,30.44
2022-08-26T16:26:10.551Z,30.46
2022-08-26T16:28:37.639Z,30.35
2022-08-26T16:31:04.888Z,30.40
2022-08-26T16:33:31.571Z,30.11
2022-08-26T16:35:58.616Z,30.22
2022-08-26T16:38:25.160Z,30.00
2022-08-26T16:40:51.684Z,30.05
2022-08-26T16:43:18.254Z,30.03
2022-08-26T16:45:44.815Z,29.99
2022-08-26T16:48:11.448Z,29.81
2022-08-26T16:50:40.494Z,29.78
2022-08-26T16:53:07.231Z,29.64
2022-08-26T16:55:34.639Z,29.56
2022-08-26T16:58:01.247Z,29.51
2022-08-26T17:00:30.354Z,29.51
2022-08-26T17:02:58.808Z,29.45
2022-08-26T17:05:26.382Z,29.25
2022-08-26T17:07:54.146Z,28.98
2022-08-26T17:10:21.877Z,28.85
2022-08-26T17:12:49.335Z,28.75
2022-08-26T17:15:16.877Z,28.74
2022-08-26T17:17:43.799Z,28.50
2022-08-26T17:20:13.561Z,28.47
2022-08-26T17:22:43.693Z,28.42
2022-08-26T17:25:13.449Z,28.35
2022-08-26T17:27:40.806Z,28.06
2022-08-26T17:30:08.030Z,28.00
2022-08-26T17:32:34.956Z,27.93
2022-08-26T17:35:03.022Z,27.62
2022-08-26T17:37:29.599Z,27.40
2022-08-26T17:39:56.171Z,27.12
2022-08-26T17:42:22.726Z,27.19
2022-08-26T17:44:58.300Z,27.20
2022-08-26T17:47:24.955Z,27.07
2022-08-26T17:49:51.489Z,26.89
2022-08-26T17:52:17.994Z,26.98
2022-08-26T17:54:44.570Z,26.87
2022-08-26T17:57:11.121Z,26.76
2022-08-26T17:59:38.613Z,26.51
2022-08-26T18:02:07.531Z,26.16
2022-08-26T18:04:34.285Z,26.32
2022-08-26T18:07:01.392Z,26.38
2022-08-26T18:09:31.209Z,26.68
2022-08-26T18:11:58.906Z,26.57
2022-08-26T18:14:26.525Z,26.07
2022-08-26T18:16:53.399Z,26.04
2022-08-26T18:19:19.931Z,25.68
2022-08-26T18:21:46.614Z,25.65
2022-08-26T18:24:14.260Z,25.58
2022-08-26T18:26:47.855Z,25.69
2022-08-26T18:29:15.786Z,25.64
2022-08-26T18:31:42.922Z,25.57
2022-08-26T18:34:12.803Z,25.61
2022-08-26T18:36:40.118Z,25.72
2022-08-26T18:39:08.123Z,25.49
2022-08-26T18:41:42.506Z,25.71
2022-08-26T18:44:13.424Z,25.26
2022-08-26T18:46:40.534Z,25.25
2022-08-26T18:49:08.228Z,25.39
2022-08-26T18:51:35.162Z,25.23
2022-08-26T18:54:04.399Z,25.26
2022-08-26T18:56:31.713Z,25.13
2022-08-26T18:58:59.741Z,25.26
2022-08-26T19:01:28.603Z,25.77
2022-08-26T19:03:56.898Z,25.30
2022-08-26T19:06:25.167Z,25.02
2022-08-26T19:08:52.743Z,24.76
2022-08-26T19:11:31.129Z,25.10
2022-08-26T19:14:03.245Z,25.38
2022-08-26T19:16:30.425Z,25.09
2022-08-26T19:18:58.859Z,24.83
2022-08-26T19:21:25.597Z,24.83
2022-08-26T19:23:56.808Z,24.65
2022-08-26T19:26:24.247Z,24.64
2022-08-26T19:28:51.053Z,24.48
2022-08-26T19:31:17.742Z,24.85
2022-08-26T19:33:45.418Z,24.90
2022-08-26T19:36:15.809Z,24.56
2022-08-26T19:38:42.877Z,24.52
2022-08-26T19:41:25.527Z,24.49
2022-08-26T19:43:58.871Z,24.44
2022-08-26T19:46:26.506Z,24.42
2022-08-26T19:48:55.703Z,24.67
2022-08-26T19:51:29.066Z,24.30
2022-08-26T19:53:58.233Z,24.42
2022-08-26T19:56:26.506Z,24.43
2022-08-26T19:58:54.333Z,24.41
2022-08-26T20:01:21.888Z,24.49
2022-08-26T20:03:48.846Z,24.29
2022-08-26T20:06:16.623Z,24.19
2022-08-26T20:08:44.217Z,24.17
2022-08-26T20:11:14.738Z,24.15
2022-08-26T20:13:41.891Z,24.09
2022-08-26T20:16:10.335Z,23.96
2022-08-26T20:18:55.578Z,24.13
2022-08-26T20:21:28.333Z,24.03
2022-08-26T20:24:05.115Z,24.19
2022-08-26T20:26:33.324Z,23.87
2022-08-26T20:29:00.309Z,24.05
2022-08-26T20:31:27.681Z,24.11
2022-08-26T20:33:54.854Z,24.04
2022-08-26T20:36:23.622Z,24.18
2022-08-26T20:38:50.333Z,23.98
2022-08-26T20:41:17.714Z,23.85
2022-08-26T20:43:46.970Z,23.80
2022-08-26T20:46:17.921Z,23.77
2022-08-26T20:48:47.046Z,23.71
2022-08-26T20:51:14.076Z,23.65
2022-08-26T20:53:41.318Z,23.72
2022-08-26T20:56:09.560Z,23.77
2022-08-26T20:58:37.405Z,23.80
2022-08-26T21:01:07.813Z,23.61
2022-08-26T21:03:35.782Z,23.53
2022-08-26T21:06:03.554Z,23.46
2022-08-26T21:08:30.408Z,23.66
2022-08-26T21:11:00.149Z,23.82
2022-08-26T21:13:26.865Z,23.85
2022-08-26T21:15:57.741Z,23.93
2022-08-26T21:18:25.142Z,23.82
2022-08-26T21:20:51.749Z,23.75
2022-08-26T21:23:18.671Z,23.89
2022-08-26T21:25:45.881Z,23.99
2022-08-26T21:28:12.770Z,23.87
2022-08-26T21:30:40.457Z,23.88
2022-08-26T21:33:07.791Z,23.48
2022-08-26T21:35:34.398Z,23.44
2022-08-26T21:38:00.945Z,23.66
2022-08-26T21:40:27.751Z,23.58
2022-08-26T21:42:54.417Z,23.48
2022-08-26T21:45:20.986Z,23.41
2022-08-26T21:47:47.522Z,23.42
2022-08-26T21:50:14.123Z,23.37
2022-08-26T21:52:40.778Z,23.43
2022-08-26T21:55:08.810Z,23.46
2022-08-26T21:57:36.390Z,23.41
2022-08-26T22:00:08.220Z,23.48
2022-08-26T22:02:35.054Z,23.60
2022-08-26T22:05:01.651Z,23.46
2022-08-26T22:07:28.277Z,23.61
2022-08-26T22:09:54.839Z,23.38
2022-08-26T22:12:21.389Z,23.27
2022-08-26T22:14:49.208Z,23.28
2022-08-26T22:17:16.814Z,23.03
2022-08-26T22:19:46.255Z,23.07
2022-08-26T22:22:13.957Z,22.80
2022-08-26T22:24:40.518Z,22.93
2022-08-26T22:27:07.059Z,22.92
2022-08-26T22:29:33.717Z,22.73
2022-08-26T22:32:01.308Z,22.68
2022-08-26T22:34:28.010Z,22.83
2022-08-26T22:36:55.213Z,22.82
2022-08-26T22:39:24.129Z,22.85
2022-08-26T22:41:52.267Z,22.66
2022-08-26T22:44:20.491Z,22.88
2022-08-26T22:46:48.360Z,23.05
2022-08-26T22:49:16.381Z,23.07
2022-08-26T22:51:44.577Z,22.94
2022-08-26T22:54:11.591Z,23.12
2022-08-26T22:56:38.688Z,22.95
2022-08-26T22:59:07.742Z,22.85
2022-08-26T23:01:40.242Z,22.67
2022-08-26T23:04:07.828Z,22.77
2022-08-26T23:06:37.020Z,22.93
2022-08-26T23:09:05.356Z,22.77
2022-08-26T23:11:32.259Z,22.73
2022-08-26T23:13:58.873Z,22.66
2022-08-26T23:16:29.000Z,22.56
2022-08-26T23:19:02.861Z,22.85
2022-08-26T23:21:29.409Z,22.83
2022-08-26T23:23:56.282Z,22.67
2022-08-26T23:26:22.934Z,22.75
2022-08-26T23:28:49.427Z,22.71
2022-08-26T23:31:16.237Z,22.61
2022-08-26T23:34:01.515Z,22.76
2022-08-26T23:36:29.748Z,22.55
2022-08-26T23:38:57.353Z,22.51
2022-08-26T23:41:24.425Z,22.48
2022-08-26T23:43:51.645Z,22.40
2022-08-26T23:46:18.738Z,22.46
2022-08-26T23:48:45.281Z,22.45
2022-08-26T23:51:30.517Z,22.56
2022-08-26T23:53:57.866Z,22.55
2022-08-26T23:56:24.397Z,22.68
2022-08-26T23:58:54.384Z,22.61
